sensor_id;sensor_type;location;lat;lon;timestamp;P1;durP1;ratioP1;P2;durP2;ratioP2
27489;SDS011;14925;51.026;13.752;2023-11-19T00:01:32;31.77;;;19.60;;
27489;SDS011;14925;51.026;13.752;2023-11-19T00:03:58;31.10;;;20.27;;
27489;SDS011;14925;51.026;13.752;2023-11-19T00:06:26;33.92;;;20.85;;
27489;SDS011;14925;51.026;13.752;2023-11-19T00:08:52;28.05;;;18.27;;
27489;SDS011;14925;51.026;13.752;2023-11-19T00:11:24;26.38;;;17.40;;
27489;SDS011;14925;51.026;13.752;2023-11-19T00:14:09;28.70;;;17.65;;
27489;SDS011;14925;51.026;13.752;2023-11-19T00:16:35;27.23;;;17.65;;
27489;SDS011;14925;51.026;13.752;2023-11-19T00:19:07;30.13;;;17.70;;
27489;SDS011;14925;51.026;13.752;2023-11-19T00:21:33;26.33;;;16.92;;
27489;SDS011;14925;51.026;13.752;2023-11-19T00:24:05;32.25;;;20.17;;
27489;SDS011;14925;51.026;13.752;2023-11-19T00:26:33;32.50;;;19.60;;
27489;SDS011;14925;51.026;13.752;2023-11-19T00:29:02;29.25;;;18.42;;
27489;SDS011;14925;51.026;13.752;2023-11-19T00:31:32;26.55;;;17.77;;
27489;SDS011;14925;51.026;13.752;2023-11-19T00:34:00;28.08;;;18.20;;
27489;SDS011;14925;51.026;13.752;2023-11-19T00:36:26;25.58;;;16.92;;
27489;SDS011;14925;51.026;13.752;2023-11-19T00:39:05;28.85;;;19.23;;
27489;SDS011;14925;51.026;13.752;2023-11-19T00:41:33;26.73;;;17.45;;
27489;SDS011;14925;51.026;13.752;2023-11-19T00:44:01;29.30;;;18.13;;
27489;SDS011;14925;51.026;13.752;2023-11-19T00:46:30;29.17;;;16.83;;
27489;SDS011;14925;51.026;13.752;2023-11-19T00:48:56;25.63;;;16.50;;
27489;SDS011;14925;51.026;13.752;2023-11-19T00:51:26;26.40;;;17.05;;
27489;SDS011;14925;51.026;13.752;2023-11-19T00:54:10;21.80;;;14.80;;
27489;SDS011;14925;51.026;13.752;2023-11-19T00:56:56;22.45;;;15.38;;
27489;SDS011;14925;51.026;13.752;2023-11-19T00:59:21;28.60;;;18.08;;
27489;SDS011;14925;51.026;13.752;2023-11-19T01:01:47;21.70;;;14.60;;
27489;SDS011;14925;51.026;13.752;2023-11-19T01:04:13;27.27;;;16.13;;
27489;SDS011;14925;51.026;13.752;2023-11-19T01:07:00;21.67;;;14.80;;
27489;SDS011;14925;51.026;13.752;2023-11-19T01:09:33;20.48;;;13.90;;
27489;SDS011;14925;51.026;13.752;2023-11-19T01:12:09;22.42;;;14.23;;
27489;SDS011;14925;51.026;13.752;2023-11-19T01:14:43;22.50;;;14.45;;
27489;SDS011;14925;51.026;13.752;2023-11-19T01:17:15;20.27;;;14.48;;
27489;SDS011;14925;51.026;13.752;2023-11-19T01:19:41;20.08;;;14.55;;
27489;SDS011;14925;51.026;13.752;2023-11-19T01:22:06;18.02;;;13.20;;
27489;SDS011;14925;51.026;13.752;2023-11-19T01:24:35;23.60;;;13.65;;
27489;SDS011;14925;51.026;13.752;2023-11-19T01:27:09;19.70;;;13.82;;
27489;SDS011;14925;51.026;13.752;2023-11-19T01:29:37;18.55;;;12.98;;
27489;SDS011;14925;51.026;13.752;2023-11-19T01:32:06;17.48;;;12.63;;
27489;SDS011;14925;51.026;13.752;2023-11-19T01:34:35;17.80;;;12.48;;
27489;SDS011;14925;51.026;13.752;2023-11-19T01:37:11;17.95;;;11.90;;
27489;SDS011;14925;51.026;13.752;2023-11-19T01:39:46;16.75;;;11.10;;
27489;SDS011;14925;51.026;13.752;2023-11-19T01:42:12;15.48;;;11.18;;
27489;SDS011;14925;51.026;13.752;2023-11-19T01:44:38;17.77;;;10.85;;
27489;SDS011;14925;51.026;13.752;2023-11-19T01:47:07;18.60;;;10.63;;
27489;SDS011;14925;51.026;13.752;2023-11-19T01:49:33;17.52;;;11.65;;
27489;SDS011;14925;51.026;13.752;2023-11-19T01:52:21;18.27;;;11.85;;
27489;SDS011;14925;51.026;13.752;2023-11-19T01:54:51;17.92;;;11.10;;
27489;SDS011;14925;51.026;13.752;2023-11-19T01:57:21;17.80;;;11.30;;
27489;SDS011;14925;51.026;13.752;2023-11-19T01:59:48;13.75;;;10.00;;
27489;SDS011;14925;51.026;13.752;2023-11-19T02:02:24;15.90;;;10.70;;
27489;SDS011;14925;51.026;13.752;2023-11-19T02:04:51;15.15;;;10.50;;
27489;SDS011;14925;51.026;13.752;2023-11-19T02:07:32;14.02;;;10.07;;
27489;SDS011;14925;51.026;13.752;2023-11-19T02:10:00;12.38;;;9.25;;
27489;SDS011;14925;51.026;13.752;2023-11-19T02:12:39;10.65;;;7.68;;
27489;SDS011;14925;51.026;13.752;2023-11-19T02:15:08;12.10;;;8.38;;
27489;SDS011;14925;51.026;13.752;2023-11-19T02:17:38;11.35;;;7.50;;
27489;SDS011;14925;51.026;13.752;2023-11-19T02:20:04;9.68;;;7.38;;
27489;SDS011;14925;51.026;13.752;2023-11-19T02:22:34;10.30;;;7.55;;
27489;SDS011;14925;51.026;13.752;2023-11-19T02:25:11;9.73;;;7.32;;
27489;SDS011;14925;51.026;13.752;2023-11-19T02:30:20;8.55;;;5.57;;
27489;SDS011;14925;51.026;13.752;2023-11-19T02:32:52;7.88;;;5.63;;
27489;SDS011;14925;51.026;13.752;2023-11-19T02:35:25;6.53;;;4.70;;
27489;SDS011;14925;51.026;13.752;2023-11-19T02:37:51;6.63;;;3.83;;
27489;SDS011;14925;51.026;13.752;2023-11-19T02:40:20;5.40;;;3.78;;
27489;SDS011;14925;51.026;13.752;2023-11-19T02:42:52;4.57;;;3.30;;
27489;SDS011;14925;51.026;13.752;2023-11-19T02:45:31;4.47;;;3.28;;
27489;SDS011;14925;51.026;13.752;2023-11-19T02:48:10;5.40;;;3.28;;
27489;SDS011;14925;51.026;13.752;2023-11-19T02:50:40;4.38;;;3.00;;
27489;SDS011;14925;51.026;13.752;2023-11-19T02:53:13;3.72;;;3.20;;
27489;SDS011;14925;51.026;13.752;2023-11-19T02:55:38;4.20;;;3.40;;
27489;SDS011;14925;51.026;13.752;2023-11-19T02:58:13;5.28;;;3.00;;
27489;SDS011;14925;51.026;13.752;2023-11-19T03:00:45;4.75;;;3.38;;
27489;SDS011;14925;51.026;13.752;2023-11-19T03:03:17;4.50;;;3.28;;
27489;SDS011;14925;51.026;13.752;2023-11-19T03:05:48;3.80;;;3.05;;
27489;SDS011;14925;51.026;13.752;2023-11-19T03:08:17;4.55;;;3.42;;
27489;SDS011;14925;51.026;13.752;2023-11-19T03:10:42;4.55;;;3.53;;
27489;SDS011;14925;51.026;13.752;2023-11-19T03:13:17;4.50;;;3.58;;
27489;SDS011;14925;51.026;13.752;2023-11-19T03:15:43;5.50;;;3.70;;
27489;SDS011;14925;51.026;13.752;2023-11-19T03:18:25;5.97;;;3.75;;
27489;SDS011;14925;51.026;13.752;2023-11-19T03:20:56;6.13;;;3.90;;
27489;SDS011;14925;51.026;13.752;2023-11-19T03:23:24;5.53;;;3.40;;
27489;SDS011;14925;51.026;13.752;2023-11-19T03:25:53;4.50;;;3.35;;
27489;SDS011;14925;51.026;13.752;2023-11-19T03:28:22;5.28;;;3.25;;
27489;SDS011;14925;51.026;13.752;2023-11-19T03:31:08;4.53;;;3.30;;
27489;SDS011;14925;51.026;13.752;2023-11-19T03:33:36;4.13;;;2.75;;
27489;SDS011;14925;51.026;13.752;2023-11-19T03:36:22;4.43;;;2.90;;
27489;SDS011;14925;51.026;13.752;2023-11-19T03:38:47;3.22;;;2.60;;
27489;SDS011;14925;51.026;13.752;2023-11-19T03:41:22;8.07;;;2.72;;
27489;SDS011;14925;51.026;13.752;2023-11-19T03:43:48;3.22;;;2.50;;
27489;SDS011;14925;51.026;13.752;2023-11-19T03:46:17;3.60;;;2.90;;
27489;SDS011;14925;51.026;13.752;2023-11-19T03:48:49;2.65;;;2.40;;
27489;SDS011;14925;51.026;13.752;2023-11-19T03:51:21;3.55;;;2.65;;
27489;SDS011;14925;51.026;13.752;2023-11-19T03:53:50;3.83;;;2.80;;
27489;SDS011;14925;51.026;13.752;2023-11-19T03:56:16;3.65;;;3.20;;
27489;SDS011;14925;51.026;13.752;2023-11-19T03:58:49;4.85;;;3.40;;
27489;SDS011;14925;51.026;13.752;2023-11-19T04:01:21;5.90;;;3.40;;
27489;SDS011;14925;51.026;13.752;2023-11-19T04:03:47;4.28;;;3.38;;
27489;SDS011;14925;51.026;13.752;2023-11-19T04:06:13;5.57;;;4.10;;
27489;SDS011;14925;51.026;13.752;2023-11-19T04:08:48;5.00;;;3.40;;
27489;SDS011;14925;51.026;13.752;2023-11-19T04:11:14;6.43;;;3.88;;
27489;SDS011;14925;51.026;13.752;2023-11-19T04:13:40;7.72;;;4.10;;
27489;SDS011;14925;51.026;13.752;2023-11-19T04:16:05;7.03;;;4.28;;
27489;SDS011;14925;51.026;13.752;2023-11-19T04:18:31;5.20;;;4.30;;
27489;SDS011;14925;51.026;13.752;2023-11-19T04:21:16;9.77;;;4.70;;
27489;SDS011;14925;51.026;13.752;2023-11-19T04:23:42;7.60;;;5.63;;
27489;SDS011;14925;51.026;13.752;2023-11-19T04:26:15;8.93;;;4.82;;
27489;SDS011;14925;51.026;13.752;2023-11-19T04:28:43;7.10;;;4.72;;
27489;SDS011;14925;51.026;13.752;2023-11-19T04:31:08;13.27;;;5.82;;
27489;SDS011;14925;51.026;13.752;2023-11-19T04:33:44;8.50;;;5.75;;
27489;SDS011;14925;51.026;13.752;2023-11-19T04:36:12;8.10;;;5.05;;
27489;SDS011;14925;51.026;13.752;2023-11-19T04:38:44;11.57;;;5.95;;
27489;SDS011;14925;51.026;13.752;2023-11-19T04:41:18;8.95;;;6.32;;
27489;SDS011;14925;51.026;13.752;2023-11-19T04:43:44;9.93;;;6.72;;
27489;SDS011;14925;51.026;13.752;2023-11-19T04:46:12;11.40;;;6.22;;
27489;SDS011;14925;51.026;13.752;2023-11-19T04:49:02;8.30;;;6.28;;
27489;SDS011;14925;51.026;13.752;2023-11-19T04:51:29;7.70;;;5.97;;
27489;SDS011;14925;51.026;13.752;2023-11-19T04:54:16;9.93;;;6.63;;
27489;SDS011;14925;51.026;13.752;2023-11-19T04:56:47;9.88;;;7.07;;
27489;SDS011;14925;51.026;13.752;2023-11-19T04:59:12;13.50;;;7.10;;
27489;SDS011;14925;51.026;13.752;2023-11-19T05:01:46;11.05;;;7.60;;
27489;SDS011;14925;51.026;13.752;2023-11-19T05:04:13;11.38;;;6.68;;
27489;SDS011;14925;51.026;13.752;2023-11-19T05:06:39;11.93;;;7.10;;
27489;SDS011;14925;51.026;13.752;2023-11-19T05:09:05;16.13;;;9.32;;
27489;SDS011;14925;51.026;13.752;2023-11-19T05:11:35;11.93;;;7.45;;
27489;SDS011;14925;51.026;13.752;2023-11-19T05:14:10;12.65;;;8.65;;
27489;SDS011;14925;51.026;13.752;2023-11-19T05:16:35;11.35;;;7.20;;
27489;SDS011;14925;51.026;13.752;2023-11-19T05:19:02;12.07;;;7.78;;
27489;SDS011;14925;51.026;13.752;2023-11-19T05:21:27;14.05;;;9.02;;
27489;SDS011;14925;51.026;13.752;2023-11-19T05:23:53;12.25;;;8.40;;
27489;SDS011;14925;51.026;13.752;2023-11-19T05:26:24;20.10;;;10.85;;
27489;SDS011;14925;51.026;13.752;2023-11-19T05:28:50;12.60;;;8.40;;
27489;SDS011;14925;51.026;13.752;2023-11-19T05:31:33;13.60;;;8.77;;
27489;SDS011;14925;51.026;13.752;2023-11-19T05:34:02;12.27;;;8.50;;
27489;SDS011;14925;51.026;13.752;2023-11-19T05:36:27;14.93;;;9.00;;
27489;SDS011;14925;51.026;13.752;2023-11-19T05:39:13;15.30;;;9.35;;
27489;SDS011;14925;51.026;13.752;2023-11-19T05:41:41;14.50;;;9.10;;
27489;SDS011;14925;51.026;13.752;2023-11-19T05:44:10;14.13;;;9.40;;
27489;SDS011;14925;51.026;13.752;2023-11-19T05:47:07;16.07;;;10.73;;
27489;SDS011;14925;51.026;13.752;2023-11-19T05:49:49;18.35;;;11.23;;
27489;SDS011;14925;51.026;13.752;2023-11-19T05:52:18;16.77;;;11.60;;
27489;SDS011;14925;51.026;13.752;2023-11-19T05:54:44;18.33;;;10.98;;
27489;SDS011;14925;51.026;13.752;2023-11-19T05:57:16;17.10;;;10.43;;
27489;SDS011;14925;51.026;13.752;2023-11-19T05:59:48;16.85;;;11.20;;
27489;SDS011;14925;51.026;13.752;2023-11-19T06:02:38;20.70;;;11.60;;
27489;SDS011;14925;51.026;13.752;2023-11-19T06:05:11;23.17;;;13.00;;
27489;SDS011;14925;51.026;13.752;2023-11-19T06:07:45;22.98;;;13.23;;
27489;SDS011;14925;51.026;13.752;2023-11-19T06:10:18;20.98;;;13.27;;
27489;SDS011;14925;51.026;13.752;2023-11-19T06:12:58;20.08;;;13.30;;
27489;SDS011;14925;51.026;13.752;2023-11-19T06:15:30;22.65;;;14.15;;
27489;SDS011;14925;51.026;13.752;2023-11-19T06:17:56;22.52;;;14.60;;
27489;SDS011;14925;51.026;13.752;2023-11-19T06:20:25;17.58;;;12.77;;
27489;SDS011;14925;51.026;13.752;2023-11-19T06:22:56;19.67;;;13.88;;
27489;SDS011;14925;51.026;13.752;2023-11-19T06:25:27;21.90;;;13.48;;
27489;SDS011;14925;51.026;13.752;2023-11-19T06:28:00;20.45;;;13.50;;
27489;SDS011;14925;51.026;13.752;2023-11-19T06:30:30;18.10;;;10.57;;
27489;SDS011;14925;51.026;13.752;2023-11-19T06:33:25;20.75;;;13.23;;
27489;SDS011;14925;51.026;13.752;2023-11-19T06:36:04;15.38;;;11.18;;
27489;SDS011;14925;51.026;13.752;2023-11-19T06:38:44;23.50;;;14.70;;
27489;SDS011;14925;51.026;13.752;2023-11-19T06:41:17;18.52;;;12.57;;
27489;SDS011;14925;51.026;13.752;2023-11-19T06:44:03;17.90;;;12.25;;
27489;SDS011;14925;51.026;13.752;2023-11-19T06:46:58;15.57;;;10.70;;
27489;SDS011;14925;51.026;13.752;2023-11-19T06:49:34;16.45;;;11.45;;
27489;SDS011;14925;51.026;13.752;2023-11-19T06:54:34;16.10;;;11.48;;
27489;SDS011;14925;51.026;13.752;2023-11-19T06:57:20;18.88;;;11.73;;
27489;SDS011;14925;51.026;13.752;2023-11-19T06:59:48;15.05;;;10.18;;
27489;SDS011;14925;51.026;13.752;2023-11-19T07:02:43;15.70;;;11.23;;
27489;SDS011;14925;51.026;13.752;2023-11-19T07:05:12;16.02;;;10.20;;
27489;SDS011;14925;51.026;13.752;2023-11-19T07:07:38;13.57;;;9.40;;
27489;SDS011;14925;51.026;13.752;2023-11-19T07:10:17;11.70;;;9.32;;
27489;SDS011;14925;51.026;13.752;2023-11-19T07:12:55;13.38;;;8.93;;
27489;SDS011;14925;51.026;13.752;2023-11-19T07:15:33;12.65;;;9.02;;
27489;SDS011;14925;51.026;13.752;2023-11-19T07:18:23;14.05;;;9.10;;
27489;SDS011;14925;51.026;13.752;2023-11-19T07:21:07;10.73;;;8.07;;
27489;SDS011;14925;51.026;13.752;2023-11-19T07:24:13;15.65;;;8.52;;
27489;SDS011;14925;51.026;13.752;2023-11-19T07:26:43;11.23;;;8.57;;
27489;SDS011;14925;51.026;13.752;2023-11-19T07:29:15;14.50;;;9.48;;
27489;SDS011;14925;51.026;13.752;2023-11-19T07:31:53;13.15;;;9.02;;
27489;SDS011;14925;51.026;13.752;2023-11-19T07:34:41;16.40;;;10.68;;
27489;SDS011;14925;51.026;13.752;2023-11-19T07:37:09;12.57;;;8.57;;
27489;SDS011;14925;51.026;13.752;2023-11-19T07:39:50;12.30;;;8.68;;
27489;SDS011;14925;51.026;13.752;2023-11-19T07:42:19;13.02;;;9.65;;
27489;SDS011;14925;51.026;13.752;2023-11-19T07:44:53;15.27;;;9.68;;
27489;SDS011;14925;51.026;13.752;2023-11-19T07:47:24;13.73;;;9.07;;
27489;SDS011;14925;51.026;13.752;2023-11-19T07:52:56;10.23;;;7.28;;
27489;SDS011;14925;51.026;13.752;2023-11-19T07:55:32;11.85;;;8.68;;
27489;SDS011;14925;51.026;13.752;2023-11-19T07:58:01;11.32;;;7.57;;
27489;SDS011;14925;51.026;13.752;2023-11-19T08:00:53;13.80;;;9.05;;
27489;SDS011;14925;51.026;13.752;2023-11-19T08:03:22;14.55;;;9.27;;
27489;SDS011;14925;51.026;13.752;2023-11-19T08:05:59;17.48;;;10.30;;
27489;SDS011;14925;51.026;13.752;2023-11-19T08:08:36;14.55;;;9.38;;
27489;SDS011;14925;51.026;13.752;2023-11-19T08:11:26;10.73;;;6.75;;
27489;SDS011;14925;51.026;13.752;2023-11-19T08:13:55;8.67;;;6.03;;
27489;SDS011;14925;51.026;13.752;2023-11-19T08:16:33;10.57;;;7.70;;
27489;SDS011;14925;51.026;13.752;2023-11-19T08:19:08;10.43;;;8.00;;
27489;SDS011;14925;51.026;13.752;2023-11-19T08:21:37;16.88;;;10.32;;
27489;SDS011;14925;51.026;13.752;2023-11-19T08:24:14;13.07;;;10.15;;
27489;SDS011;14925;51.026;13.752;2023-11-19T08:26:42;14.02;;;10.25;;
27489;SDS011;14925;51.026;13.752;2023-11-19T08:29:10;11.48;;;8.77;;
27489;SDS011;14925;51.026;13.752;2023-11-19T08:31:50;12.25;;;8.30;;
27489;SDS011;14925;51.026;13.752;2023-11-19T08:34:38;13.48;;;9.60;;
27489;SDS011;14925;51.026;13.752;2023-11-19T08:37:44;10.88;;;7.10;;
27489;SDS011;14925;51.026;13.752;2023-11-19T08:40:15;11.30;;;8.00;;
27489;SDS011;14925;51.026;13.752;2023-11-19T08:43:21;7.97;;;6.50;;
27489;SDS011;14925;51.026;13.752;2023-11-19T08:45:58;10.25;;;6.93;;
27489;SDS011;14925;51.026;13.752;2023-11-19T08:48:41;11.68;;;7.03;;
27489;SDS011;14925;51.026;13.752;2023-11-19T08:51:14;8.73;;;7.35;;
27489;SDS011;14925;51.026;13.752;2023-11-19T08:53:50;11.75;;;8.00;;
27489;SDS011;14925;51.026;13.752;2023-11-19T08:56:35;11.75;;;8.98;;
27489;SDS011;14925;51.026;13.752;2023-11-19T08:59:17;16.92;;;11.88;;
27489;SDS011;14925;51.026;13.752;2023-11-19T09:01:57;12.23;;;8.32;;
27489;SDS011;14925;51.026;13.752;2023-11-19T09:04:26;10.93;;;7.75;;
27489;SDS011;14925;51.026;13.752;2023-11-19T09:06:58;11.10;;;8.18;;
27489;SDS011;14925;51.026;13.752;2023-11-19T09:09:52;11.27;;;7.43;;
27489;SDS011;14925;51.026;13.752;2023-11-19T09:12:17;17.92;;;9.23;;
27489;SDS011;14925;51.026;13.752;2023-11-19T09:14:46;11.02;;;7.72;;
27489;SDS011;14925;51.026;13.752;2023-11-19T09:17:23;14.98;;;9.85;;
27489;SDS011;14925;51.026;13.752;2023-11-19T09:19:51;15.43;;;9.20;;
27489;SDS011;14925;51.026;13.752;2023-11-19T09:22:31;16.02;;;9.73;;
27489;SDS011;14925;51.026;13.752;2023-11-19T09:25:11;16.00;;;10.50;;
27489;SDS011;14925;51.026;13.752;2023-11-19T09:27:49;18.45;;;10.63;;
27489;SDS011;14925;51.026;13.752;2023-11-19T09:30:53;12.23;;;5.40;;
27489;SDS011;14925;51.026;13.752;2023-11-19T09:33:30;62.28;;;17.48;;
27489;SDS011;14925;51.026;13.752;2023-11-19T09:39:18;37.28;;;19.48;;
27489;SDS011;14925;51.026;13.752;2023-11-19T09:44:30;26.50;;;11.73;;
27489;SDS011;14925;51.026;13.752;2023-11-19T09:47:14;27.73;;;11.88;;
27489;SDS011;14925;51.026;13.752;2023-11-19T09:49:55;10.98;;;3.05;;
27489;SDS011;14925;51.026;13.752;2023-11-19T09:52:36;3.40;;;1.52;;
27489;SDS011;14925;51.026;13.752;2023-11-19T09:55:12;7.30;;;1.80;;
27489;SDS011;14925;51.026;13.752;2023-11-19T09:58:04;6.10;;;1.98;;
27489;SDS011;14925;51.026;13.752;2023-11-19T10:01:15;6.97;;;1.65;;
27489;SDS011;14925;51.026;13.752;2023-11-19T10:06:53;5.82;;;1.70;;
27489;SDS011;14925;51.026;13.752;2023-11-19T10:09:25;5.28;;;1.17;;
27489;SDS011;14925;51.026;13.752;2023-11-19T10:11:51;6.60;;;1.50;;
27489;SDS011;14925;51.026;13.752;2023-11-19T10:14:20;7.85;;;1.33;;
27489;SDS011;14925;51.026;13.752;2023-11-19T10:16:48;4.18;;;1.05;;
27489;SDS011;14925;51.026;13.752;2023-11-19T10:19:20;6.88;;;1.35;;
27489;SDS011;14925;51.026;13.752;2023-11-19T10:21:51;6.28;;;1.25;;
27489;SDS011;14925;51.026;13.752;2023-11-19T10:27:26;5.93;;;1.23;;
27489;SDS011;14925;51.026;13.752;2023-11-19T10:30:32;4.47;;;1.20;;
27489;SDS011;14925;51.026;13.752;2023-11-19T10:41:57;6.68;;;1.58;;
27489;SDS011;14925;51.026;13.752;2023-11-19T10:44:54;3.97;;;1.20;;
27489;SDS011;14925;51.026;13.752;2023-11-19T10:47:23;4.88;;;1.30;;
27489;SDS011;14925;51.026;13.752;2023-11-19T10:50:12;7.72;;;1.20;;
27489;SDS011;14925;51.026;13.752;2023-11-19T10:53:15;5.43;;;1.40;;
27489;SDS011;14925;51.026;13.752;2023-11-19T10:55:47;3.13;;;1.17;;
27489;SDS011;14925;51.026;13.752;2023-11-19T10:58:47;3.67;;;1.60;;
27489;SDS011;14925;51.026;13.752;2023-11-19T11:01:20;6.80;;;1.38;;
27489;SDS011;14925;51.026;13.752;2023-11-19T11:04:02;7.78;;;1.23;;
27489;SDS011;14925;51.026;13.752;2023-11-19T11:06:28;5.97;;;1.30;;
27489;SDS011;14925;51.026;13.752;2023-11-19T11:09:00;4.95;;;1.30;;
27489;SDS011;14925;51.026;13.752;2023-11-19T11:11:32;5.43;;;1.30;;
27489;SDS011;14925;51.026;13.752;2023-11-19T11:14:26;2.42;;;1.08;;
27489;SDS011;14925;51.026;13.752;2023-11-19T11:16:55;8.38;;;1.30;;
27489;SDS011;14925;51.026;13.752;2023-11-19T11:19:24;4.13;;;1.10;;
27489;SDS011;14925;51.026;13.752;2023-11-19T11:21:55;5.72;;;1.23;;
27489;SDS011;14925;51.026;13.752;2023-11-19T11:30:24;6.55;;;1.20;;
27489;SDS011;14925;51.026;13.752;2023-11-19T11:33:34;6.07;;;1.30;;
27489;SDS011;14925;51.026;13.752;2023-11-19T11:38:49;4.65;;;1.08;;
27489;SDS011;14925;51.026;13.752;2023-11-19T11:41:22;6.07;;;1.42;;
27489;SDS011;14925;51.026;13.752;2023-11-19T11:43:55;7.78;;;1.20;;
27489;SDS011;14925;51.026;13.752;2023-11-19T11:49:05;6.15;;;1.35;;
27489;SDS011;14925;51.026;13.752;2023-11-19T11:57:53;5.78;;;1.58;;
27489;SDS011;14925;51.026;13.752;2023-11-19T12:00:48;5.07;;;1.33;;
27489;SDS011;14925;51.026;13.752;2023-11-19T12:04:03;10.18;;;2.00;;
27489;SDS011;14925;51.026;13.752;2023-11-19T12:09:42;10.70;;;1.75;;
27489;SDS011;14925;51.026;13.752;2023-11-19T12:12:23;7.38;;;1.67;;
27489;SDS011;14925;51.026;13.752;2023-11-19T12:18:28;9.15;;;1.50;;
27489;SDS011;14925;51.026;13.752;2023-11-19T12:21:33;9.75;;;1.63;;
27489;SDS011;14925;51.026;13.752;2023-11-19T12:24:32;10.80;;;1.92;;
27489;SDS011;14925;51.026;13.752;2023-11-19T12:27:27;7.60;;;1.77;;
27489;SDS011;14925;51.026;13.752;2023-11-19T12:30:36;9.52;;;1.92;;
27489;SDS011;14925;51.026;13.752;2023-11-19T12:33:41;12.38;;;2.35;;
27489;SDS011;14925;51.026;13.752;2023-11-19T12:36:10;11.77;;;2.00;;
27489;SDS011;14925;51.026;13.752;2023-11-19T12:38:47;11.85;;;2.20;;
27489;SDS011;14925;51.026;13.752;2023-11-19T12:41:25;11.30;;;2.10;;
27489;SDS011;14925;51.026;13.752;2023-11-19T12:44:51;13.30;;;2.53;;
27489;SDS011;14925;51.026;13.752;2023-11-19T12:47:44;14.02;;;2.60;;
27489;SDS011;14925;51.026;13.752;2023-11-19T12:51:10;15.48;;;2.20;;
27489;SDS011;14925;51.026;13.752;2023-11-19T12:53:53;12.82;;;2.33;;
27489;SDS011;14925;51.026;13.752;2023-11-19T12:56:32;11.15;;;2.38;;
27489;SDS011;14925;51.026;13.752;2023-11-19T13:02:08;13.35;;;2.20;;
27489;SDS011;14925;51.026;13.752;2023-11-19T13:13:55;9.77;;;2.63;;
27489;SDS011;14925;51.026;13.752;2023-11-19T13:16:37;11.00;;;2.50;;
27489;SDS011;14925;51.026;13.752;2023-11-19T13:19:19;17.17;;;2.33;;
27489;SDS011;14925;51.026;13.752;2023-11-19T13:21:55;13.30;;;2.45;;
27489;SDS011;14925;51.026;13.752;2023-11-19T13:24:24;13.43;;;2.33;;
27489;SDS011;14925;51.026;13.752;2023-11-19T13:30:20;16.20;;;3.08;;
27489;SDS011;14925;51.026;13.752;2023-11-19T13:32:55;14.98;;;2.60;;
27489;SDS011;14925;51.026;13.752;2023-11-19T13:35:41;11.53;;;2.07;;
27489;SDS011;14925;51.026;13.752;2023-11-19T13:38:17;12.45;;;2.60;;
27489;SDS011;14925;51.026;13.752;2023-11-19T13:40:49;16.60;;;2.85;;
27489;SDS011;14925;51.026;13.752;2023-11-19T13:43:52;13.55;;;2.42;;
27489;SDS011;14925;51.026;13.752;2023-11-19T13:46:47;15.60;;;2.80;;
27489;SDS011;14925;51.026;13.752;2023-11-19T13:52:48;16.45;;;3.05;;
27489;SDS011;14925;51.026;13.752;2023-11-19T13:55:23;18.85;;;2.65;;
27489;SDS011;14925;51.026;13.752;2023-11-19T13:58:12;19.90;;;3.05;;
27489;SDS011;14925;51.026;13.752;2023-11-19T14:01:05;16.02;;;2.95;;
27489;SDS011;14925;51.026;13.752;2023-11-19T14:03:34;16.80;;;2.88;;
27489;SDS011;14925;51.026;13.752;2023-11-19T14:06:02;20.98;;;3.40;;
27489;SDS011;14925;51.026;13.752;2023-11-19T14:08:43;13.02;;;2.60;;
27489;SDS011;14925;51.026;13.752;2023-11-19T14:11:14;16.92;;;3.08;;
27489;SDS011;14925;51.026;13.752;2023-11-19T14:13:40;12.52;;;2.42;;
27489;SDS011;14925;51.026;13.752;2023-11-19T14:16:11;16.73;;;3.17;;
27489;SDS011;14925;51.026;13.752;2023-11-19T14:18:51;19.20;;;2.63;;
27489;SDS011;14925;51.026;13.752;2023-11-19T14:21:23;13.13;;;2.88;;
27489;SDS011;14925;51.026;13.752;2023-11-19T14:24:12;18.15;;;2.83;;
27489;SDS011;14925;51.026;13.752;2023-11-19T14:26:45;19.63;;;2.33;;
27489;SDS011;14925;51.026;13.752;2023-11-19T14:29:23;16.38;;;3.10;;
27489;SDS011;14925;51.026;13.752;2023-11-19T14:31:51;16.33;;;3.03;;
27489;SDS011;14925;51.026;13.752;2023-11-19T14:34:16;17.45;;;3.00;;
27489;SDS011;14925;51.026;13.752;2023-11-19T14:36:44;15.85;;;2.97;;
27489;SDS011;14925;51.026;13.752;2023-11-19T14:39:16;18.10;;;2.85;;
27489;SDS011;14925;51.026;13.752;2023-11-19T14:41:50;14.63;;;2.72;;
27489;SDS011;14925;51.026;13.752;2023-11-19T14:44:26;21.88;;;2.60;;
27489;SDS011;14925;51.026;13.752;2023-11-19T14:46:52;17.85;;;3.15;;
27489;SDS011;14925;51.026;13.752;2023-11-19T14:49:17;14.50;;;2.55;;
27489;SDS011;14925;51.026;13.752;2023-11-19T14:51:43;13.60;;;3.05;;
27489;SDS011;14925;51.026;13.752;2023-11-19T14:54:11;17.23;;;2.97;;
27489;SDS011;14925;51.026;13.752;2023-11-19T14:56:45;25.05;;;3.60;;
27489;SDS011;14925;51.026;13.752;2023-11-19T14:59:12;17.63;;;2.50;;
27489;SDS011;14925;51.026;13.752;2023-11-19T15:01:45;21.35;;;2.80;;
27489;SDS011;14925;51.026;13.752;2023-11-19T15:04:13;15.45;;;2.67;;
27489;SDS011;14925;51.026;13.752;2023-11-19T15:06:40;16.08;;;3.13;;
27489;SDS011;14925;51.026;13.752;2023-11-19T15:09:09;13.27;;;2.70;;
27489;SDS011;14925;51.026;13.752;2023-11-19T15:11:38;16.67;;;2.72;;
27489;SDS011;14925;51.026;13.752;2023-11-19T15:14:03;18.05;;;3.40;;
27489;SDS011;14925;51.026;13.752;2023-11-19T15:16:32;21.85;;;3.22;;
27489;SDS011;14925;51.026;13.752;2023-11-19T15:18:59;18.13;;;2.92;;
27489;SDS011;14925;51.026;13.752;2023-11-19T15:21:28;21.63;;;3.08;;
27489;SDS011;14925;51.026;13.752;2023-11-19T15:23:56;17.65;;;2.80;;
27489;SDS011;14925;51.026;13.752;2023-11-19T15:26:33;18.63;;;3.00;;
27489;SDS011;14925;51.026;13.752;2023-11-19T15:29:02;14.95;;;3.17;;
27489;SDS011;14925;51.026;13.752;2023-11-19T15:31:27;17.90;;;3.45;;
27489;SDS011;14925;51.026;13.752;2023-11-19T15:33:53;17.20;;;3.08;;
27489;SDS011;14925;51.026;13.752;2023-11-19T15:36:19;17.10;;;2.80;;
27489;SDS011;14925;51.026;13.752;2023-11-19T15:38:45;18.77;;;3.40;;
27489;SDS011;14925;51.026;13.752;2023-11-19T15:41:10;17.33;;;3.80;;
27489;SDS011;14925;51.026;13.752;2023-11-19T15:43:38;20.85;;;3.33;;
27489;SDS011;14925;51.026;13.752;2023-11-19T15:46:07;19.30;;;3.80;;
27489;SDS011;14925;51.026;13.752;2023-11-19T15:48:36;19.45;;;3.58;;
27489;SDS011;14925;51.026;13.752;2023-11-19T15:51:01;16.48;;;3.08;;
27489;SDS011;14925;51.026;13.752;2023-11-19T15:53:28;17.40;;;3.25;;
27489;SDS011;14925;51.026;13.752;2023-11-19T15:55:54;14.60;;;2.90;;
27489;SDS011;14925;51.026;13.752;2023-11-19T15:58:20;17.42;;;3.10;;
27489;SDS011;14925;51.026;13.752;2023-11-19T16:00:47;18.35;;;3.10;;
27489;SDS011;14925;51.026;13.752;2023-11-19T16:03:13;17.00;;;3.10;;
27489;SDS011;14925;51.026;13.752;2023-11-19T16:05:39;19.48;;;3.20;;
27489;SDS011;14925;51.026;13.752;2023-11-19T16:08:04;15.63;;;3.13;;
27489;SDS011;14925;51.026;13.752;2023-11-19T16:10:30;16.23;;;3.08;;
27489;SDS011;14925;51.026;13.752;2023-11-19T16:12:56;17.50;;;3.40;;
27489;SDS011;14925;51.026;13.752;2023-11-19T16:15:24;17.85;;;3.05;;
27489;SDS011;14925;51.026;13.752;2023-11-19T16:17:49;19.55;;;4.10;;